Time;durP1;ratioP1;P1;durP2;ratioP2;P2;SDS_P1;SDS_P2;PMS_P1;PMS_P2;Temp;Humidity;BMP_temperature;BMP_pressure;BME280_temperature;BME280_humidity;BME280_pressure;Samples;Min_cycle;Max_cycle;Signal;HPM_P1;HPM_P2
2022/09/16 00:00:10;;;;;;;2.17;1.13;;;14.20;48.90;;;;;;5047763;28;20459;-74
2022/09/16 00:02:37;;;;;;;1.27;0.70;;;14.10;48.90;;;;;;5044204;28;20041;-74
2022/09/16 00:05:04;;;;;;;1.33;0.70;;;14.10;49.00;;;;;;5045323;28;20036;-74
2022/09/16 00:07:30;;;;;;;2.10;0.93;;;14.00;49.00;;;;;;5039632;28;20025;-74
2022/09/16 00:09:56;;;;;;;3.08;1.20;;;13.90;49.00;;;;;;5063443;28;20074;-74
2022/09/16 00:12:22;;;;;;;2.50;1.08;;;13.80;49.00;;;;;;5059490;28;20098;-75
2022/09/16 00:14:50;;;;;;;1.33;0.80;;;13.80;49.20;;;;;;5031192;28;20556;-73
2022/09/16 00:17:16;;;;;;;2.22;1.20;;;13.70;49.10;;;;;;5039039;28;20059;-74
2022/09/16 00:19:43;;;;;;;3.92;1.17;;;13.60;49.20;;;;;;5058969;28;20032;-74
2022/09/16 00:22:09;;;;;;;2.10;1.00;;;13.60;49.30;;;;;;5048689;28;20037;-74
2022/09/16 00:24:35;;;;;;;2.83;0.90;;;13.50;49.30;;;;;;5047497;28;20087;-75
2022/09/16 00:27:01;;;;;;;0.82;0.75;;;13.50;49.40;;;;;;5048560;28;20345;-73
2022/09/16 00:29:27;;;;;;;1.30;0.95;;;13.40;49.30;;;;;;5039730;28;20043;-74
2022/09/16 00:31:53;;;;;;;3.33;0.90;;;13.40;49.50;;;;;;5045716;28;20117;-74
2022/09/16 00:34:19;;;;;;;1.83;1.00;;;13.30;49.50;;;;;;5046436;28;20041;-74
2022/09/16 00:36:45;;;;;;;1.85;0.90;;;13.30;49.60;;;;;;5047024;28;20103;-75
2022/09/16 00:39:11;;;;;;;1.85;1.00;;;13.30;49.70;;;;;;5009595;28;20428;-75
2022/09/16 00:41:37;;;;;;;2.25;0.88;;;13.20;49.60;;;;;;5047696;28;20028;-74
2022/09/16 00:44:41;;;;;;;4.10;1.27;;;13.20;49.80;;;;;;5044530;28;20048;-75
2022/09/16 00:47:08;;;;;;;1.30;0.70;;;13.20;50.00;;;;;;5047395;28;20045;-73
2022/09/16 00:49:35;;;;;;;1.88;0.85;;;13.20;49.80;;;;;;5046713;28;20053;-74
2022/09/16 00:52:04;;;;;;;2.25;1.10;;;13.10;49.80;;;;;;5044094;28;20041;-74
2022/09/16 00:54:32;;;;;;;2.80;0.98;;;13.10;49.90;;;;;;5048540;28;20025;-73
2022/09/16 00:57:00;;;;;;;1.25;0.73;;;13.00;49.80;;;;;;5037583;28;20518;-73
2022/09/16 00:59:30;;;;;;;3.28;1.65;;;13.00;50.00;;;;;;5038096;28;20029;-73
2022/09/16 01:02:05;;;;;;;2.53;1.00;;;13.00;50.10;;;;;;5052416;28;20360;-73
2022/09/16 01:04:39;;;;;;;1.38;0.90;;;12.90;50.10;;;;;;5048616;28;20021;-75
2022/09/16 01:07:07;;;;;;;6.03;1.30;;;12.80;50.00;;;;;;5028670;28;20040;-73
2022/09/16 01:09:34;;;;;;;2.25;0.90;;;12.80;50.10;;;;;;5030226;28;20033;-73
2022/09/16 01:12:01;;;;;;;2.83;1.40;;;12.80;50.30;;;;;;5029588;28;20053;-74
2022/09/16 01:17:23;;;;;;;4.57;0.90;;;12.70;50.40;;;;;;5036854;28;20422;-73
2022/09/16 01:20:25;;;;;;;2.28;1.00;;;12.70;50.50;;;;;;5031240;28;20025;-74
2022/09/16 01:23:00;;;;;;;2.80;1.37;;;12.60;50.60;;;;;;5042422;28;20450;-74
2022/09/16 01:25:56;;;;;;;2.72;1.25;;;12.60;50.50;;;;;;5049429;28;20431;-72
2022/09/16 01:28:52;;;;;;;3.08;0.95;;;12.60;50.90;;;;;;5040053;28;20033;-73
2022/09/16 01:31:32;;;;;;;4.13;1.13;;;12.50;50.70;;;;;;5044707;28;20040;-73
2022/09/16 01:34:17;;;;;;;1.67;0.73;;;12.50;50.70;;;;;;5043226;28;20037;-73
2022/09/16 01:37:16;;;;;;;2.30;0.80;;;12.40;50.70;;;;;;5045374;28;20361;-74
2022/09/16 01:40:04;;;;;;;3.63;0.80;;;12.40;50.90;;;;;;5041514;28;20039;-73
2022/09/16 01:42:37;;;;;;;2.65;1.10;;;12.40;50.80;;;;;;5060870;28;20318;-74
2022/09/16 01:45:35;;;;;;;5.63;1.20;;;12.30;50.70;;;;;;5055343;28;20499;-73
2022/09/16 01:48:31;;;;;;;2.28;0.90;;;12.30;51.10;;;;;;5035220;28;20037;-74
2022/09/16 01:51:11;;;;;;;1.55;0.70;;;12.20;51.00;;;;;;5036968;28;20087;-74
2022/09/16 01:53:51;;;;;;;2.92;1.33;;;12.20;50.90;;;;;;5050609;28;20040;-73
2022/09/16 01:56:28;;;;;;;2.58;0.85;;;12.20;51.10;;;;;;5071354;28;20033;-73
2022/09/16 01:58:54;;;;;;;1.20;0.65;;;12.20;51.20;;;;;;5065454;28;20403;-73
2022/09/16 02:01:54;;;;;;;1.95;0.90;;;12.10;51.00;;;;;;5050555;28;20017;-72
2022/09/16 02:04:29;;;;;;;3.95;1.10;;;12.10;51.40;;;;;;5050479;28;20629;-73
2022/09/16 02:06:57;;;;;;;1.63;0.70;;;12.10;51.20;;;;;;5048377;28;20499;-73
2022/09/16 02:09:29;;;;;;;1.70;1.05;;;12.10;51.30;;;;;;5050360;28;20029;-73
2022/09/16 02:12:04;;;;;;;3.15;1.02;;;12.00;51.30;;;;;;5038073;28;20343;-73
2022/09/16 02:14:35;;;;;;;3.10;0.85;;;12.00;51.50;;;;;;5047731;28;20040;-73
2022/09/16 02:17:08;;;;;;;1.20;0.63;;;11.90;51.30;;;;;;5042582;28;20033;-74
2022/09/16 02:19:41;;;;;;;1.63;0.77;;;11.90;51.50;;;;;;5047498;28;20117;-74
2022/09/16 02:22:16;;;;;;;1.73;0.90;;;11.90;51.50;;;;;;5048948;28;20032;-74
2022/09/16 02:24:45;;;;;;;1.88;0.93;;;11.80;51.50;;;;;;5048587;28;20063;-73
2022/09/16 02:27:20;;;;;;;1.95;0.80;;;11.80;51.50;;;;;;5049521;28;20033;-73
2022/09/16 02:30:05;;;;;;;2.13;0.98;;;11.80;51.70;;;;;;5037516;28;20053;-73
2022/09/16 02:32:34;;;;;;;1.40;0.70;;;11.80;51.90;;;;;;5050906;28;20029;-74
2022/09/16 02:35:01;;;;;;;3.80;1.05;;;11.70;51.60;;;;;;5049920;28;20033;-74
2022/09/16 02:37:35;;;;;;;2.25;1.70;;;11.70;51.80;;;;;;5047238;28;20029;-73
2022/09/16 02:40:11;;;;;;;0.93;0.70;;;11.70;52.00;;;;;;5051627;28;20157;-73
2022/09/16 02:42:37;;;;;;;2.05;0.98;;;11.70;52.00;;;;;;5043289;28;20058;-73
2022/09/16 02:45:04;;;;;;;1.67;0.98;;;11.70;52.00;;;;;;5049844;28;20028;-74
2022/09/16 02:47:57;;;;;;;2.10;0.93;;;11.70;52.10;;;;;;5046529;28;20022;-74
2022/09/16 02:50:40;;;;;;;1.00;0.70;;;11.70;52.50;;;;;;5050026;28;20533;-73
2022/09/16 02:53:31;;;;;;;1.35;0.90;;;11.70;52.40;;;;;;5056230;28;20041;-74
2022/09/16 02:56:08;;;;;;;3.13;0.77;;;11.70;52.40;;;;;;5038477;28;20038;-73
2022/09/16 02:58:35;;;;;;;2.90;0.90;;;11.70;52.90;;;;;;5047039;28;20040;-73
2022/09/16 03:01:01;;;;;;;3.80;1.02;;;11.70;52.40;;;;;;5059145;28;20029;-73
2022/09/16 03:03:27;;;;;;;1.40;1.10;;;11.70;52.50;;;;;;5050615;28;20044;-73
2022/09/16 03:06:09;;;;;;;3.05;0.80;;;11.70;52.60;;;;;;5049476;28;20037;-72
2022/09/16 03:08:37;;;;;;;6.47;0.90;;;11.70;52.90;;;;;;5049493;28;20029;-73
2022/09/16 03:11:09;;;;;;;0.82;0.73;;;11.70;52.70;;;;;;5050939;28;20032;-73
2022/09/16 03:13:54;;;;;;;1.90;0.85;;;11.70;52.90;;;;;;5033437;28;20071;-74
2022/09/16 03:16:33;;;;;;;2.75;0.85;;;11.70;53.00;;;;;;5046130;28;20021;-74
2022/09/16 03:19:07;;;;;;;1.55;0.75;;;11.70;53.60;;;;;;5046998;28;20025;-73
2022/09/16 03:21:51;;;;;;;2.78;1.38;;;11.70;53.00;;;;;;5049046;28;20033;-73
2022/09/16 03:24:53;;;;;;;1.85;0.63;;;11.70;53.20;;;;;;5074707;28;20040;-73
2022/09/16 03:27:30;;;;;;;2.03;1.20;;;11.70;53.30;;;;;;5070364;28;20044;-73
2022/09/16 03:30:05;;;;;;;1.98;0.80;;;11.70;53.20;;;;;;5049498;28;20029;-73
2022/09/16 03:32:35;;;;;;;3.15;0.88;;;11.80;53.50;;;;;;5050897;28;20048;-72
2022/09/16 03:35:08;;;;;;;2.22;1.02;;;11.80;53.60;;;;;;5041778;28;20025;-74
2022/09/16 03:37:38;;;;;;;1.13;0.70;;;11.80;53.80;;;;;;5047912;28;20043;-74
2022/09/16 03:40:11;;;;;;;2.38;0.98;;;11.80;53.80;;;;;;5042396;28;20056;-74
2022/09/16 03:42:39;;;;;;;6.30;1.20;;;11.80;53.90;;;;;;5049490;28;20037;-74
2022/09/16 03:45:07;;;;;;;1.70;0.85;;;11.80;53.90;;;;;;5050155;28;20108;-73
2022/09/16 03:47:33;;;;;;;1.05;0.70;;;11.80;54.00;;;;;;5032428;28;20029;-73
2022/09/16 03:49:59;;;;;;;9.88;3.45;;;11.80;54.20;;;;;;5045926;28;20049;-73
2022/09/16 03:52:25;;;;;;;1.33;0.73;;;11.80;54.20;;;;;;5053540;28;20033;-73
2022/09/16 03:54:51;;;;;;;2.00;0.90;;;11.90;54.50;;;;;;5053172;28;20033;-74
2022/09/16 03:57:17;;;;;;;2.55;0.60;;;11.90;54.60;;;;;;5052473;28;20540;-73
2022/09/16 03:59:43;;;;;;;1.73;0.75;;;11.90;54.50;;;;;;5067385;28;20032;-73
2022/09/16 04:02:09;;;;;;;4.30;1.20;;;11.90;54.60;;;;;;5066288;28;20036;-72
2022/09/16 04:04:35;;;;;;;1.27;1.00;;;11.90;54.70;;;;;;5051440;28;20051;-73
2022/09/16 04:07:02;;;;;;;0.63;0.60;;;11.90;54.80;;;;;;5052781;28;20044;-73
2022/09/16 04:09:28;;;;;;;1.30;0.68;;;11.90;54.80;;;;;;5053502;28;20033;-73
2022/09/16 04:11:53;;;;;;;1.23;0.70;;;11.90;54.90;;;;;;5046283;28;20052;-72
2022/09/16 04:14:21;;;;;;;2.30;0.80;;;11.90;54.90;;;;;;5047580;28;20083;-73
2022/09/16 04:16:48;;;;;;;1.23;0.70;;;11.90;55.00;;;;;;5033529;28;20064;-73
2022/09/16 04:19:14;;;;;;;3.05;0.60;;;11.80;54.80;;;;;;5050269;28;20043;-73
2022/09/16 04:21:42;;;;;;;2.63;0.80;;;11.80;54.90;;;;;;5044548;28;20032;-73
2022/09/16 04:24:08;;;;;;;2.10;0.90;;;11.70;54.80;;;;;;5047784;28;20048;-72
2022/09/16 04:26:34;;;;;;;1.52;0.80;;;11.70;54.90;;;;;;5053233;28;20059;-73
2022/09/16 04:29:00;;;;;;;4.25;1.00;;;11.70;55.00;;;;;;5053207;28;20028;-73
2022/09/16 04:31:28;;;;;;;1.00;0.80;;;11.60;54.90;;;;;;5052907;28;20444;-72
2022/09/16 04:33:54;;;;;;;1.65;0.90;;;11.60;54.90;;;;;;5053764;28;20535;-73
2022/09/16 04:36:20;;;;;;;0.90;0.70;;;11.60;55.00;;;;;;5050696;28;20051;-73
2022/09/16 04:38:47;;;;;;;2.17;0.60;;;11.50;54.90;;;;;;5051173;28;20029;-72
2022/09/16 04:41:16;;;;;;;2.28;0.82;;;11.50;55.00;;;;;;5031780;28;20030;-72
2022/09/16 04:43:42;;;;;;;1.15;0.88;;;11.50;55.10;;;;;;5049515;28;20033;-73
2022/09/16 04:46:09;;;;;;;1.52;0.80;;;11.40;54.80;;;;;;5051659;28;20075;-73
2022/09/16 04:48:36;;;;;;;3.72;0.88;;;11.40;54.90;;;;;;5045710;28;20044;-73
2022/09/16 04:51:07;;;;;;;12.30;1.00;;;11.40;55.00;;;;;;5041108;28;20412;-72
2022/09/16 04:53:36;;;;;;;2.60;0.80;;;11.30;54.90;;;;;;5046472;28;20044;-73
2022/09/16 04:56:16;;;;;;;2.08;0.90;;;11.30;54.90;;;;;;5038827;28;20043;-72
2022/09/16 04:58:47;;;;;;;1.42;0.80;;;11.30;55.10;;;;;;5049728;28;20033;-73
2022/09/16 05:01:16;;;;;;;1.85;0.90;;;11.20;54.90;;;;;;5052125;28;20036;-74
2022/09/16 05:03:44;;;;;;;0.85;0.85;;;11.20;54.90;;;;;;5048242;28;20039;-72
2022/09/16 05:06:16;;;;;;;1.75;0.82;;;11.20;55.00;;;;;;5049548;28;20040;-72
2022/09/16 05:08:42;;;;;;;1.67;0.90;;;11.10;54.90;;;;;;5048333;28;20524;-75
2022/09/16 05:11:14;;;;;;;1.98;1.65;;;11.10;54.90;;;;;;5034640;28;20592;-75
2022/09/16 05:13:40;;;;;;;2.53;1.95;;;11.10;55.00;;;;;;5049649;28;20043;-73
2022/09/16 05:16:10;;;;;;;2.17;0.98;;;11.10;55.00;;;;;;5049300;28;20041;-74
2022/09/16 05:18:37;;;;;;;0.75;0.75;;;11.00;55.50;;;;;;5042824;28;20028;-74
2022/09/16 05:21:06;;;;;;;1.25;0.70;;;11.00;55.00;;;;;;5047442;28;20059;-74
2022/09/16 05:23:32;;;;;;;2.63;0.95;;;10.90;54.90;;;;;;5039037;28;20029;-74
2022/09/16 05:26:18;;;;;;;1.65;0.90;;;10.90;54.90;;;;;;5028197;28;20041;-74
2022/09/16 05:28:46;;;;;;;2.78;0.90;;;10.90;55.10;;;;;;5048416;28;20308;-75
2022/09/16 05:31:27;;;;;;;2.65;0.88;;;10.90;55.10;;;;;;5047208;28;20020;-73
2022/09/16 05:33:56;;;;;;;0.88;0.70;;;10.80;55.00;;;;;;5052659;28;20033;-73
2022/09/16 05:36:24;;;;;;;1.02;0.90;;;10.80;55.10;;;;;;5043285;28;20025;-74
2022/09/16 05:38:50;;;;;;;3.88;2.03;;;10.80;55.20;;;;;;5044961;28;20037;-72
2022/09/16 05:41:16;;;;;;;1.25;0.70;;;10.70;55.10;;;;;;5036622;28;20030;-74
2022/09/16 05:43:42;;;;;;;2.10;0.80;;;10.70;55.10;;;;;;5044877;28;20450;-74
2022/09/16 05:46:15;;;;;;;1.30;0.60;;;10.70;55.10;;;;;;5034571;28;20749;-74
2022/09/16 05:48:41;;;;;;;1.33;0.88;;;10.70;55.20;;;;;;5040448;28;20061;-74
2022/09/16 05:51:09;;;;;;;1.50;0.63;;;10.70;55.80;;;;;;5035359;28;20044;-74
2022/09/16 05:53:35;;;;;;;1.63;0.60;;;10.60;55.10;;;;;;5042132;28;20024;-72
2022/09/16 05:56:04;;;;;;;4.53;0.90;;;10.60;55.10;;;;;;5047004;28;20017;-74
2022/09/16 05:58:33;;;;;;;1.65;0.77;;;10.60;55.10;;;;;;5044485;28;20074;-74
2022/09/16 06:00:59;;;;;;;4.50;0.90;;;10.60;55.20;;;;;;5042432;28;20874;-76
2022/09/16 06:03:26;;;;;;;3.35;1.10;;;10.60;55.50;;;;;;5038547;28;20029;-75
2022/09/16 06:05:59;;;;;;;2.63;1.05;;;10.50;55.70;;;;;;5042369;28;20033;-75
2022/09/16 06:08:26;;;;;;;1.80;0.90;;;10.60;56.30;;;;;;5044351;28;20078;-75
2022/09/16 06:10:52;;;;;;;9.80;1.35;;;10.60;56.40;;;;;;5028922;28;20029;-74
2022/09/16 06:13:18;;;;;;;35.17;7.00;;;10.60;56.60;;;;;;5048244;28;20059;-75
2022/09/16 06:15:50;;;;;;;39.65;9.25;;;10.70;57.10;;;;;;5040609;28;20099;-75
2022/09/16 06:18:17;;;;;;;34.53;7.60;;;10.70;57.40;;;;;;5042810;28;20427;-75
2022/09/16 06:20:44;;;;;;;29.90;7.35;;;10.80;57.80;;;;;;5032477;28;20157;-74
2022/09/16 06:23:10;;;;;;;31.35;7.68;;;10.80;57.90;;;;;;5033705;28;20542;-74
2022/09/16 06:25:37;;;;;;;16.88;5.28;;;10.80;58.20;;;;;;5033883;28;20018;-75
2022/09/16 06:28:03;;;;;;;23.48;5.80;;;10.90;58.50;;;;;;5041655;28;20180;-76
2022/09/16 06:30:29;;;;;;;20.85;4.93;;;10.90;58.70;;;;;;5033141;28;20036;-74
2022/09/16 06:32:55;;;;;;;13.73;3.88;;;11.00;59.00;;;;;;5045099;28;20041;-76
2022/09/16 06:35:21;;;;;;;8.60;2.78;;;10.90;59.40;;;;;;5046398;28;20111;-74
2022/09/16 06:37:47;;;;;;;11.68;3.83;;;11.00;59.00;;;;;;5039130;28;20041;-75
2022/09/16 06:40:13;;;;;;;7.50;2.35;;;11.00;59.00;;;;;;5044226;28;20037;-75
2022/09/16 06:42:39;;;;;;;6.07;1.80;;;11.00;59.00;;;;;;5046741;28;20037;-74
2022/09/16 06:45:07;;;;;;;6.55;1.80;;;11.00;58.90;;;;;;5036849;28;20209;-76
2022/09/16 06:47:33;;;;;;;3.45;1.63;;;11.00;58.90;;;;;;5042568;28;20037;-76
2022/09/16 06:49:59;;;;;;;6.45;1.23;;;11.00;58.80;;;;;;5036284;28;20053;-75
2022/09/16 06:52:27;;;;;;;3.92;1.10;;;11.10;58.90;;;;;;5027470;28;20036;-74
2022/09/16 06:54:53;;;;;;;1.60;1.00;;;11.10;58.70;;;;;;5039687;28;20031;-74
2022/09/16 06:57:21;;;;;;;2.60;1.40;;;11.20;59.30;;;;;;5045608;28;20091;-73
2022/09/16 06:59:48;;;;;;;2.55;0.95;;;11.20;58.60;;;;;;5059215;28;20029;-74
2022/09/16 07:02:15;;;;;;;2.65;1.10;;;11.20;58.50;;;;;;5029525;28;20456;-75
2022/09/16 07:04:41;;;;;;;1.55;0.80;;;11.30;58.50;;;;;;5039662;28;20033;-75
2022/09/16 07:07:07;;;;;;;2.08;0.60;;;11.30;58.50;;;;;;5044138;28;20033;-76
2022/09/16 07:09:33;;;;;;;2.72;0.82;;;11.30;58.40;;;;;;5043532;28;20472;-75
2022/09/16 07:11:59;;;;;;;2.70;0.85;;;11.30;58.30;;;;;;5047750;28;20078;-76
2022/09/16 07:14:26;;;;;;;2.28;0.93;;;11.30;58.30;;;;;;5035055;28;20528;-75
2022/09/16 07:16:53;;;;;;;1.95;0.82;;;11.30;58.20;;;;;;5042409;28;20021;-75
2022/09/16 07:19:19;;;;;;;1.83;0.57;;;11.40;58.40;;;;;;5040193;28;20029;-76
2022/09/16 07:21:45;;;;;;;1.10;0.70;;;11.40;58.30;;;;;;5043006;28;20330;-75
2022/09/16 07:24:12;;;;;;;3.05;0.80;;;11.40;58.30;;;;;;5045335;28;20041;-75
2022/09/16 07:26:40;;;;;;;2.97;1.02;;;11.40;58.30;;;;;;5032206;28;20479;-75
2022/09/16 07:29:10;;;;;;;1.83;1.35;;;11.50;58.50;;;;;;5051504;28;20048;-77
2022/09/16 07:31:38;;;;;;;2.55;1.00;;;11.40;58.20;;;;;;5050656;28;20083;-76
2022/09/16 07:34:06;;;;;;;1.88;1.25;;;11.50;58.30;;;;;;5048072;28;20022;-76
2022/09/16 07:36:35;;;;;;;1.38;0.88;;;11.60;58.50;;;;;;5052388;28;20207;-76
2022/09/16 07:39:02;;;;;;;4.07;1.27;;;11.60;58.40;;;;;;5051458;28;20308;-73
2022/09/16 07:41:34;;;;;;;3.42;1.08;;;11.70;58.50;;;;;;5050870;28;20021;-74
2022/09/16 07:44:02;;;;;;;1.70;0.88;;;11.80;58.60;;;;;;5037764;28;20040;-74
2022/09/16 07:46:31;;;;;;;1.30;0.65;;;11.80;58.50;;;;;;5049904;28;20039;-73
2022/09/16 07:48:59;;;;;;;4.45;1.02;;;11.90;58.60;;;;;;5049120;28;20063;-76
2022/09/16 07:51:26;;;;;;;3.10;1.25;;;11.90;58.50;;;;;;5045772;28;20033;-77
2022/09/16 07:53:54;;;;;;;1.55;0.80;;;12.00;58.60;;;;;;5048576;28;20049;-75
2022/09/16 07:56:24;;;;;;;3.63;0.80;;;12.10;58.60;;;;;;5050323;28;20585;-74
2022/09/16 07:58:51;;;;;;;1.90;0.77;;;12.10;58.50;;;;;;5048152;28;20021;-76
2022/09/16 08:01:17;;;;;;;2.72;0.63;;;12.20;58.60;;;;;;5054167;28;20024;-75
2022/09/16 08:03:44;;;;;;;3.63;0.90;;;12.30;58.70;;;;;;5050465;28;20029;-75
2022/09/16 08:06:23;;;;;;;4.97;1.17;;;12.30;58.60;;;;;;5047847;28;20049;-75
2022/09/16 08:08:55;;;;;;;2.40;0.88;;;12.40;58.70;;;;;;5040993;28;20031;-75
2022/09/16 08:11:21;;;;;;;1.83;0.70;;;12.40;58.50;;;;;;5042424;28;20034;-76
2022/09/16 08:13:48;;;;;;;2.25;0.60;;;12.50;58.50;;;;;;5018593;28;20048;-74
2022/09/16 08:16:18;;;;;;;2.67;0.80;;;12.60;58.60;;;;;;5047409;28;20037;-73
2022/09/16 08:18:48;;;;;;;1.67;0.57;;;12.60;58.50;;;;;;5045397;28;20044;-74
2022/09/16 08:21:19;;;;;;;1.80;0.80;;;12.70;59.10;;;;;;5047539;28;20024;-77
2022/09/16 08:23:45;;;;;;;2.22;1.25;;;12.80;58.60;;;;;;5048570;28;20029;-75
2022/09/16 08:26:12;;;;;;;2.78;0.70;;;12.80;58.40;;;;;;5044780;28;20037;-76
2022/09/16 08:28:41;;;;;;;5.32;1.48;;;12.90;58.40;;;;;;5036628;28;20025;-76
2022/09/16 08:31:08;;;;;;;2.65;1.02;;;13.00;58.40;;;;;;5047987;28;20033;-75
2022/09/16 08:33:34;;;;;;;4.25;1.42;;;13.00;58.20;;;;;;5037885;28;20248;-76
2022/09/16 08:36:07;;;;;;;2.92;1.15;;;13.10;58.20;;;;;;5034997;28;20040;-75
2022/09/16 08:38:34;;;;;;;1.83;0.80;;;13.20;58.20;;;;;;5035902;28;20146;-75
2022/09/16 08:41:18;;;;;;;4.70;1.17;;;13.20;58.10;;;;;;5047806;28;20028;-76
2022/09/16 08:43:53;;;;;;;4.30;1.13;;;13.30;58.10;;;;;;5046601;28;20253;-75
2022/09/16 08:46:38;;;;;;;3.67;1.17;;;13.40;58.10;;;;;;5049011;28;20029;-75
2022/09/16 08:49:40;;;;;;;1.90;1.30;;;13.40;57.90;;;;;;5046781;28;20388;-76
2022/09/16 08:52:14;;;;;;;3.55;0.70;;;13.50;57.90;;;;;;5041843;28;20060;-76
2022/09/16 08:54:49;;;;;;;2.40;1.08;;;13.60;57.80;;;;;;5040184;28;20145;-76
2022/09/16 08:57:23;;;;;;;2.03;0.88;;;13.60;57.60;;;;;;5043612;28;20595;-76
2022/09/16 08:59:56;;;;;;;6.88;1.13;;;13.70;57.60;;;;;;5040716;28;20371;-75
2022/09/16 09:02:54;;;;;;;2.40;0.52;;;13.70;57.50;;;;;;5052246;28;20420;-75
2022/09/16 09:06:10;;;;;;;2.45;0.63;;;13.80;57.50;;;;;;5043009;28;20034;-76
2022/09/16 09:08:55;;;;;;;2.72;0.70;;;13.90;57.40;;;;;;5023786;28;20037;-77
2022/09/16 09:11:49;;;;;;;2.55;0.82;;;14.00;57.40;;;;;;5002691;28;20047;-75
2022/09/16 09:14:48;;;;;;;;;;;14.00;57.20;;;;;;5012432;28;20317;-77
2022/09/16 09:17:38;;;;;;;2.38;0.60;;;14.10;57.20;;;;;;5025535;28;19909;-75
2022/09/16 09:20:44;;;;;;;2.47;0.70;;;14.20;57.10;;;;;;5036267;28;20033;-76
2022/09/16 09:23:47;;;;;;;4.93;0.90;;;14.30;57.20;;;;;;5046315;28;20033;-75
2022/09/16 09:26:21;;;;;;;1.98;0.70;;;14.30;57.10;;;;;;5045099;28;20044;-75
2022/09/16 09:29:11;;;;;;;2.67;0.77;;;14.40;57.10;;;;;;5039763;28;20027;-76
2022/09/16 09:32:20;;;;;;;1.65;0.57;;;14.50;57.20;;;;;;5045958;28;20033;-75
2022/09/16 09:34:53;;;;;;;1.85;0.70;;;14.60;57.20;;;;;;5041178;28;20036;-76
2022/09/16 09:38:16;;;;;;;2.38;0.70;;;14.70;57.10;;;;;;5046403;28;20037;-75
2022/09/16 09:40:53;;;;;;;1.20;0.60;;;14.70;56.90;;;;;;5028820;28;20028;-76
2022/09/16 09:43:27;;;;;;;3.33;0.68;;;14.80;56.80;;;;;;5025767;28;20086;-75
2022/09/16 09:46:03;;;;;;;2.05;0.50;;;14.90;56.80;;;;;;5036012;28;20071;-74
2022/09/16 09:48:37;;;;;;;4.25;0.55;;;14.90;56.60;;;;;;5041524;28;20037;-75
2022/09/16 09:51:28;;;;;;;1.90;0.80;;;15.00;56.60;;;;;;5052607;28;20032;-75
2022/09/16 09:54:04;;;;;;;1.58;0.50;;;15.10;56.60;;;;;;5043716;28;20104;-76
2022/09/16 09:56:38;;;;;;;2.22;0.47;;;15.10;56.30;;;;;;5052865;28;20116;-76
2022/09/16 09:59:47;;;;;;;2.60;0.60;;;15.20;56.30;;;;;;5056871;28;20131;-75
2022/09/16 10:02:21;;;;;;;2.55;0.70;;;15.30;56.20;;;;;;5046664;28;20029;-75
2022/09/16 10:04:48;;;;;;;1.30;0.40;;;15.30;56.00;;;;;;5048460;28;20033;-75
2022/09/16 10:07:23;;;;;;;3.67;0.70;;;15.40;56.00;;;;;;5047717;28;20032;-76
2022/09/16 10:09:59;;;;;;;4.18;0.50;;;15.50;55.90;;;;;;5044280;28;20035;-76
2022/09/16 10:12:26;;;;;;;2.58;0.50;;;15.50;55.60;;;;;;5019573;28;20511;-76
2022/09/16 10:14:52;;;;;;;2.83;0.85;;;15.60;55.60;;;;;;5046003;28;20059;-76
2022/09/16 10:17:18;;;;;;;2.70;0.70;;;15.70;55.60;;;;;;5046682;28;20135;-74
2022/09/16 10:20:18;;;;;;;3.08;0.70;;;15.80;55.50;;;;;;5042703;28;20063;-76
2022/09/16 10:23:04;;;;;;;1.77;0.47;;;15.80;55.10;;;;;;5051859;28;20055;-75
2022/09/16 10:25:32;;;;;;;1.42;0.40;;;15.90;55.70;;;;;;5048620;28;20035;-75
2022/09/16 10:28:04;;;;;;;1.48;0.55;;;15.90;54.90;;;;;;5033113;28;20033;-76
2022/09/16 10:30:43;;;;;;;1.77;0.40;;;16.00;54.90;;;;;;5049303;28;20617;-75
2022/09/16 10:33:32;;;;;;;1.90;0.50;;;16.00;54.70;;;;;;5047679;28;20090;-75
2022/09/16 10:36:04;;;;;;;0.45;0.30;;;16.10;54.60;;;;;;5047242;28;20572;-73
2022/09/16 10:38:47;;;;;;;3.53;0.60;;;16.10;54.40;;;;;;5038778;28;20031;-75
2022/09/16 10:41:31;;;;;;;3.22;0.70;;;16.20;54.30;;;;;;5047865;28;20392;-74
2022/09/16 10:44:13;;;;;;;1.63;0.55;;;16.30;54.40;;;;;;5046215;28;20044;-75
2022/09/16 10:47:05;;;;;;;1.05;0.50;;;16.40;54.30;;;;;;5035412;28;20030;-74
2022/09/16 10:49:43;;;;;;;1.73;0.50;;;16.50;54.10;;;;;;5040837;28;20048;-75
2022/09/16 10:52:20;;;;;;;1.40;0.50;;;16.50;53.90;;;;;;5044355;28;20335;-74
2022/09/16 10:54:46;;;;;;;2.78;0.40;;;16.60;53.80;;;;;;5028831;28;20156;-75
2022/09/16 10:57:27;;;;;;;3.22;0.32;;;16.60;53.60;;;;;;5047166;28;20433;-74
2022/09/16 10:59:58;;;;;;;0.70;0.20;;;16.60;53.40;;;;;;5034352;28;20056;-77
2022/09/16 11:02:32;;;;;;;1.75;0.30;;;16.70;53.50;;;;;;5035655;28;20021;-75
2022/09/16 11:05:37;;;;;;;1.92;0.40;;;16.70;53.20;;;;;;5054701;28;20186;-75
2022/09/16 11:08:31;;;;;;;3.47;1.05;;;16.80;53.20;;;;;;5055220;28;20029;-75
2022/09/16 11:11:21;;;;;;;1.85;0.80;;;16.90;53.30;;;;;;5048379;28;20040;-76
2022/09/16 11:14:06;;;;;;;1.80;0.57;;;17.00;53.30;;;;;;5022584;28;20045;-74
2022/09/16 11:16:47;;;;;;;3.65;0.80;;;17.10;53.10;;;;;;5047247;28;20481;-75
2022/09/16 11:19:41;;;;;;;2.55;0.80;;;17.20;53.10;;;;;;5044428;28;20271;-76
2022/09/16 11:22:45;;;;;;;3.60;0.55;;;17.30;52.80;;;;;;5040595;28;20041;-76
2022/09/16 11:25:50;;;;;;;1.77;0.52;;;17.40;52.60;;;;;;5050910;28;20029;-75
2022/09/16 11:28:48;;;;;;;3.20;0.70;;;17.60;52.70;;;;;;5039699;28;20029;-76
2022/09/16 11:31:42;;;;;;;1.70;0.50;;;17.80;52.60;;;;;;5031710;28;20033;-75
2022/09/16 11:34:23;;;;;;;;;;;18.10;52.50;;;;;;5038448;28;20051;-76
2022/09/16 11:37:20;;;;;;;3.78;1.35;;;18.30;52.60;;;;;;5048458;28;19932;-76
2022/09/16 11:40:16;;;;;;;4.35;0.70;;;18.60;52.50;;;;;;5036697;28;20520;-74
2022/09/16 11:43:15;;;;;;;1.13;0.52;;;19.00;52.20;;;;;;5042161;28;20344;-75
2022/09/16 11:46:22;;;;;;;2.63;0.70;;;19.30;52.00;;;;;;5051439;28;20048;-75
2022/09/16 11:48:51;;;;;;;0.80;0.32;;;19.70;51.40;;;;;;5045423;28;20524;-74
2022/09/16 11:51:24;;;;;;;0.82;0.63;;;20.00;51.40;;;;;;5049711;28;20037;-74
2022/09/16 11:53:49;;;;;;;;;;;20.20;51.10;;;;;;5049108;28;20047;-74
2022/09/16 11:56:40;;;;;;;1.35;0.40;;;20.40;50.90;;;;;;5041563;28;20003;-74
2022/09/16 11:59:12;;;;;;;1.00;0.40;;;20.60;50.70;;;;;;5037529;28;20443;-76
2022/09/16 12:01:47;;;;;;;1.00;0.47;;;20.70;50.70;;;;;;5050285;28;20029;-75
2022/09/16 12:04:21;;;;;;;0.47;0.20;;;20.60;50.10;;;;;;5042049;28;20030;-75
2022/09/16 12:07:00;;;;;;;0.60;0.40;;;20.60;50.00;;;;;;5042604;28;20507;-75
2022/09/16 12:09:32;;;;;;;3.70;0.88;;;20.50;49.70;;;;;;5038801;28;20040;-75
2022/09/16 12:12:21;;;;;;;2.85;0.28;;;20.30;49.40;;;;;;5048195;28;20047;-75
2022/09/16 12:14:53;;;;;;;1.15;0.40;;;20.20;49.20;;;;;;5043105;28;20037;-75
2022/09/16 12:17:23;;;;;;;1.00;0.40;;;20.10;49.30;;;;;;5039401;28;20055;-76
2022/09/16 12:20:15;;;;;;;0.82;0.60;;;20.00;49.20;;;;;;5047527;28;20024;-74
2022/09/16 12:22:51;;;;;;;1.25;0.43;;;19.90;48.80;;;;;;5034311;28;20036;-74
2022/09/16 12:25:37;;;;;;;1.63;0.55;;;19.90;49.00;;;;;;5048652;28;20045;-75
2022/09/16 12:28:23;;;;;;;0.60;0.20;;;19.90;48.90;;;;;;5037055;28;20033;-75
2022/09/16 12:31:19;;;;;;;1.05;0.38;;;19.90;49.00;;;;;;5045483;28;20033;-74
2022/09/16 12:33:51;;;;;;;;;;;19.80;48.70;;;;;;5048497;28;20036;-74
2022/09/16 12:36:27;;;;;;;0.50;0.30;;;19.90;49.20;;;;;;5049516;28;20326;-75
2022/09/16 12:38:53;;;;;;;1.30;0.30;;;19.90;49.20;;;;;;5044712;28;20078;-77
2022/09/16 12:41:28;;;;;;;2.40;0.95;;;20.00;49.10;;;;;;5033542;28;20030;-74
2022/09/16 12:44:02;;;;;;;0.73;0.30;;;20.10;48.60;;;;;;5045960;28;20569;-74
2022/09/16 12:46:37;;;;;;;2.03;0.40;;;20.10;48.30;;;;;;5047174;28;20037;-74
2022/09/16 12:49:41;;;;;;;0.75;0.30;;;20.10;47.70;;;;;;5034538;28;20045;-76
2022/09/16 12:52:22;;;;;;;2.45;0.28;;;20.30;47.70;;;;;;5020934;28;20044;-74
2022/09/16 12:55:25;;;;;;;2.92;0.75;;;20.40;47.70;;;;;;5041150;28;20043;-75
2022/09/16 12:57:54;;;;;;;0.57;0.40;;;20.60;48.20;;;;;;5039834;28;20029;-75
2022/09/16 13:00:49;;;;;;;0.73;0.30;;;20.60;47.60;;;;;;5042691;28;20497;-76
2022/09/16 13:03:23;;;;;;;1.88;0.40;;;20.70;47.60;;;;;;5043684;28;20029;-76
2022/09/16 13:05:51;;;;;;;1.45;0.30;;;20.70;47.50;;;;;;5048430;28;20197;-75
2022/09/16 13:08:30;;;;;;;0.82;0.28;;;20.70;47.50;;;;;;5043253;28;20029;-74
2022/09/16 13:11:06;;;;;;;0.30;0.22;;;20.80;47.50;;;;;;5049134;28;20021;-75
2022/09/16 13:13:36;;;;;;;0.52;0.30;;;20.80;47.50;;;;;;5038127;28;20044;-76
2022/09/16 13:16:07;;;;;;;0.60;0.20;;;20.90;47.50;;;;;;5048555;28;20029;-75
2022/09/16 13:18:48;;;;;;;0.43;0.30;;;20.90;47.20;;;;;;5041732;28;20028;-75
2022/09/16 13:21:33;;;;;;;1.95;0.50;;;21.00;47.10;;;;;;5041389;28;20303;-76
2022/09/16 13:24:11;;;;;;;0.63;0.32;;;21.00;47.00;;;;;;5029067;28;20037;-75
2022/09/16 13:26:42;;;;;;;0.82;0.40;;;21.10;47.10;;;;;;5031594;28;20029;-76
2022/09/16 13:29:31;;;;;;;0.47;0.30;;;21.30;47.10;;;;;;5047431;28;20106;-75